Time;durP1;ratioP1;P1;durP2;ratioP2;P2;SDS_P1;SDS_P2;PMS_P1;PMS_P2;Temp;Humidity;BMP_temperature;BMP_pressure;BME280_temperature;BME280_humidity;BME280_pressure;Samples;Min_cycle;Max_cycle;Signal;HPM_P1;HPM_P2
2022/08/06 00:01:49;;;;;;;;;;;;;;;-142.75;100.00;77796.84;5032050;28;19921;-65
2022/08/06 00:04:14;;;;;;;;;;;;;;;-142.75;100.00;77798.81;5031999;28;19913;-66
2022/08/06 00:06:39;;;;;;;;;;;;;;;-142.75;100.00;77804.72;5031464;28;20395;-64
2022/08/06 00:09:05;;;;;;;;;;;;;;;-142.75;100.00;77814.56;5031974;28;20329;-65
2022/08/06 00:11:30;;;;;;;;;;;;;;;-142.75;100.00;77857.88;5031807;28;19924;-66
2022/08/06 00:13:55;;;;;;;;;;;;;;;-142.75;100.00;77857.88;5031874;28;19936;-65
2022/08/06 00:16:20;;;;;;;;;;;;;;;-142.75;100.00;77871.66;5030517;28;19913;-66
2022/08/06 00:18:46;;;;;;;;;;;;;;;-142.75;100.00;77871.66;5032748;28;19921;-66
2022/08/06 00:21:11;;;;;;;;;;;;;;;-142.75;100.00;77850.00;5035686;28;19951;-65
2022/08/06 00:23:36;;;;;;;;;;;;;;;-142.75;100.00;77850.00;5035671;28;19970;-65
2022/08/06 00:26:01;;;;;;;;;;;;;;;-142.75;100.00;77844.09;5035670;28;19966;-66
2022/08/06 00:28:27;;;;;;;;;;;;;;;-142.75;100.00;77830.31;5035125;28;19913;-65
2022/08/06 00:30:52;;;;;;;;;;;;;;;-142.75;100.00;77842.13;5035481;28;19917;-66
2022/08/06 00:33:17;;;;;;;;;;;;;;;-142.75;100.00;77824.41;5035504;28;20550;-65
2022/08/06 00:35:43;;;;;;;;;;;;;;;-142.75;100.00;77834.25;5035513;28;19963;-66
2022/08/06 00:38:08;;;;;;;;;;;;;;;-142.75;100.00;77842.13;5035010;28;20421;-67
2022/08/06 00:40:34;;;;;;;;;;;;;;;-142.75;100.00;77853.94;5035387;28;19913;-63
2022/08/06 00:43:00;;;;;;;;;;;;;;;-142.75;100.00;77859.84;5035231;28;20432;-65
2022/08/06 00:45:25;;;;;;;;;;;;;;;-142.75;100.00;77869.69;5017526;28;20268;-66
2022/08/06 00:47:51;;;;;;;;;;;;;;;-142.75;100.00;77873.63;5034898;28;19967;-66
2022/08/06 00:50:17;;;;;;;;;;;;;;;-142.75;100.00;77869.69;5035082;28;19917;-66
2022/08/06 00:52:43;;;;;;;;;;;;;;;-142.75;100.00;77877.56;5035110;28;19913;-66
2022/08/06 00:55:09;;;;;;;;;;;;;;;-142.75;100.00;77881.50;5035184;28;19920;-66
2022/08/06 00:57:34;;;;;;;;;;;;;;;-142.75;100.00;77877.56;5034607;28;19914;-65
2022/08/06 00:59:59;;;;;;;;;;;;;;;-142.75;100.00;77885.44;5034993;28;19913;-66
2022/08/06 01:02:24;;;;;;;;;;;;;;;-142.75;100.00;77899.22;5034961;28;19913;-65
2022/08/06 01:04:49;;;;;;;;;;;;;;;-142.75;100.00;77897.25;5034866;28;19913;-66
2022/08/06 01:07:15;;;;;;;;;;;;;;;-142.75;100.00;77913.03;5016653;28;20291;-65
2022/08/06 01:09:40;;;;;;;;;;;;;;;-142.75;100.00;77911.06;5034779;28;20295;-65
2022/08/06 01:12:05;;;;;;;;;;;;;;;-142.75;100.00;77911.06;5034674;28;19920;-66
2022/08/06 01:14:31;;;;;;;;;;;;;;;-142.75;100.00;77913.03;5034768;28;19952;-65
2022/08/06 01:17:02;;;;;;;;;;;;;;;-142.75;100.00;77913.03;5016814;28;19913;-66
2022/08/06 01:19:27;;;;;;;;;;;;;;;-142.75;100.00;77920.91;5034619;28;19913;-66
2022/08/06 01:22:11;;;;;;;;;;;;;;;-142.75;100.00;77936.66;5034658;28;19916;-66
2022/08/06 01:24:36;;;;;;;;;;;;;;;-142.75;100.00;77940.59;5034477;28;19913;-66
2022/08/06 01:27:20;;;;;;;;;;;;;;;-142.75;100.00;77936.66;5034159;28;20039;-66
2022/08/06 01:29:48;;;;;;;;;;;;;;;-142.75;100.00;77934.69;5015694;28;20340;-66
2022/08/06 01:32:20;;;;;;;;;;;;;;;-142.75;100.00;77940.59;5016675;28;20305;-65
2022/08/06 01:34:48;;;;;;;;;;;;;;;-142.75;100.00;77934.69;5034261;28;19913;-66
2022/08/06 01:37:16;;;;;;;;;;;;;;;-142.75;100.00;77930.75;5033897;28;19917;-66
2022/08/06 01:39:44;;;;;;;;;;;;;;;-142.75;100.00;77922.88;5034273;28;19914;-65
2022/08/06 01:42:10;;;;;;;;;;;;;;;-142.75;100.00;77916.97;5034350;28;19945;-66
2022/08/06 01:44:37;;;;;;;;;;;;;;;-142.75;100.00;77916.97;5034162;28;19913;-65
2022/08/06 01:47:07;;;;;;;;;;;;;;;-142.75;100.00;77926.81;5033814;28;19913;-65
2022/08/06 01:49:33;;;;;;;;;;;;;;;-142.75;100.00;77915.00;5033973;28;19917;-66
2022/08/06 01:51:59;;;;;;;;;;;;;;;-142.75;100.00;77907.09;5034000;28;19971;-65
2022/08/06 01:54:25;;;;;;;;;;;;;;;-142.75;100.00;77909.06;5033988;28;20286;-66
2022/08/06 01:56:52;;;;;;;;;;;;;;;-142.75;100.00;77897.25;5033608;28;19913;-66
2022/08/06 01:59:19;;;;;;;;;;;;;;;-142.75;100.00;77887.41;5033830;28;19913;-66
2022/08/06 02:01:47;;;;;;;;;;;;;;;-142.75;100.00;77887.41;5016096;28;20382;-66
2022/08/06 02:04:13;;;;;;;;;;;;;;;-142.75;100.00;77877.56;5033698;28;20000;-65
2022/08/06 02:06:40;;;;;;;;;;;;;;;-142.75;100.00;77865.75;5015522;28;19960;-64
2022/08/06 02:09:09;;;;;;;;;;;;;;;-142.75;100.00;77863.78;5033745;28;20263;-66
2022/08/06 02:11:35;;;;;;;;;;;;;;;-142.75;100.00;77855.91;5033590;28;20306;-65
2022/08/06 02:14:01;;;;;;;;;;;;;;;-142.75;100.00;77848.03;5033665;28;19913;-65
2022/08/06 02:16:29;;;;;;;;;;;;;;;-142.75;100.00;77834.25;5033442;28;19985;-65
2022/08/06 02:18:56;;;;;;;;;;;;;;;-142.75;100.00;77826.38;5015851;28;20286;-66
2022/08/06 02:21:22;;;;;;;;;;;;;;;-142.75;100.00;77814.56;5033479;28;19913;-65
2022/08/06 02:23:48;;;;;;;;;;;;;;;-142.75;100.00;77828.34;5033480;28;19913;-66
2022/08/06 02:26:14;;;;;;;;;;;;;;;-142.75;100.00;77838.19;5033295;28;19971;-65
2022/08/06 02:28:41;;;;;;;;;;;;;;;-142.75;100.00;77846.06;5033108;28;19913;-65
2022/08/06 02:31:06;;;;;;;;;;;;;;;-142.75;100.00;77848.03;5033122;28;19960;-65
2022/08/06 02:33:31;;;;;;;;;;;;;;;-142.75;100.00;77877.56;5033160;28;19913;-65
2022/08/06 02:35:59;;;;;;;;;;;;;;;-142.75;100.00;77877.56;5033186;28;19913;-65
2022/08/06 02:38:31;;;;;;;;;;;;;;;-142.75;100.00;77885.44;5032789;28;19940;-66
2022/08/06 02:40:58;;;;;;;;;;;;;;;-142.75;100.00;77877.56;5031735;28;19959;-65
2022/08/06 02:43:30;;;;;;;;;;;;;;;-142.75;100.00;77875.59;5033083;28;19962;-66
2022/08/06 02:45:57;;;;;;;;;;;;;;;-142.75;100.00;77897.25;5032971;28;19967;-65
2022/08/06 02:48:37;;;;;;;;;;;;;;;-142.75;100.00;77885.44;5032590;28;20417;-66
2022/08/06 02:51:05;;;;;;;;;;;;;;;-142.75;100.00;77893.31;5032899;28;19921;-63
2022/08/06 02:53:42;;;;;;;;;;;;;;;-142.75;100.00;77901.19;5032878;28;20359;-66
2022/08/06 02:56:09;;;;;;;;;;;;;;;-142.75;100.00;77893.31;5032660;28;19952;-65
2022/08/06 02:58:37;;;;;;;;;;;;;;;-142.75;100.00;77883.47;5032475;28;19921;-66
2022/08/06 03:01:06;;;;;;;;;;;;;;;-142.75;100.00;77877.56;5031489;28;20302;-65
2022/08/06 03:03:32;;;;;;;;;;;;;;;-142.75;100.00;77873.63;5032687;28;19967;-66
2022/08/06 03:05:58;;;;;;;;;;;;;;;-142.75;100.00;77846.06;5014985;28;19920;-65
2022/08/06 03:08:26;;;;;;;;;;;;;;;-142.75;100.00;77842.13;5064634;22;19929;-64
2022/08/06 03:10:52;;;;;;;;;;;;;;;-142.75;100.00;77832.28;5050855;28;20019;-63
2022/08/06 03:13:21;;;;;;;;;;;;;;;-142.75;100.00;77830.31;5052157;28;20055;-64
2022/08/06 03:15:46;;;;;;;;;;;;;;;-142.75;100.00;77828.34;5052437;28;20362;-63
2022/08/06 03:18:12;;;;;;;;;;;;;;;-142.75;100.00;77838.19;5052194;28;19913;-64
2022/08/06 03:20:38;;;;;;;;;;;;;;;-142.75;100.00;77844.09;5052373;28;19935;-64
2022/08/06 03:23:06;;;;;;;;;;;;;;;-142.75;100.00;77834.25;5052368;28;19920;-64
2022/08/06 03:25:31;;;;;;;;;;;;;;;-142.75;100.00;77838.19;5052323;28;19913;-64
2022/08/06 03:27:58;;;;;;;;;;;;;;;-142.75;100.00;77826.38;5051813;28;19995;-64
2022/08/06 03:30:24;;;;;;;;;;;;;;;-142.75;100.00;77853.94;5052220;28;19956;-63
2022/08/06 03:32:50;;;;;;;;;;;;;;;-142.75;100.00;77861.81;5052183;28;19913;-64
2022/08/06 03:35:16;;;;;;;;;;;;;;;-142.75;100.00;77879.53;5052221;28;19912;-63
2022/08/06 03:37:42;;;;;;;;;;;;;;;-142.75;100.00;77889.38;5051852;28;19913;-64
2022/08/06 03:40:08;;;;;;;;;;;;;;;-142.75;100.00;77901.19;5052245;28;19920;-64
2022/08/06 03:42:34;;;;;;;;;;;;;;;-142.75;100.00;77909.06;5052103;28;19913;-64
2022/08/06 03:44:59;;;;;;;;;;;;;;;-142.75;100.00;77922.88;5052074;28;20012;-63
2022/08/06 03:47:32;;;;;;;;;;;;;;;-142.75;100.00;77964.22;5051663;28;19916;-64
2022/08/06 03:50:02;;;;;;;;;;;;;;;-142.75;100.00;77979.97;5052060;28;19920;-64
2022/08/06 03:52:29;;;;;;;;;;;;;;;-142.75;100.00;78017.38;5052353;28;20381;-64
2022/08/06 03:54:57;;;;;;;;;;;;;;;-142.75;100.00;78033.13;5056100;28;19912;-64
2022/08/06 03:57:24;;;;;;;;;;;;;;;-142.75;100.00;78033.13;5055708;28;19923;-64
2022/08/06 03:59:51;;;;;;;;;;;;;;;-142.75;100.00;78046.91;5056079;28;19917;-64
2022/08/06 04:02:18;;;;;;;;;;;;;;;-142.75;100.00;78056.78;5055998;28;19971;-64
2022/08/06 04:04:44;;;;;;;;;;;;;;;-142.75;100.00;78042.97;5056002;28;19913;-64
2022/08/06 04:07:10;;;;;;;;;;;;;;;-142.75;100.00;78046.91;5055459;28;20337;-64
2022/08/06 04:09:36;;;;;;;;;;;;;;;-142.75;100.00;78039.03;5055838;28;19912;-64
2022/08/06 04:12:02;;;;;;;;;;;;;;;-142.75;100.00;78039.03;5055840;28;20297;-64
2022/08/06 04:14:28;;;;;;;;;;;;;;;-142.75;100.00;78019.34;5055801;28;19936;-63
2022/08/06 04:16:53;;;;;;;;;;;;;;;-142.75;100.00;78017.38;5055435;28;20496;-64
2022/08/06 04:19:19;;;;;;;;;;;;;;;-142.75;100.00;78039.03;5055628;28;20366;-63
2022/08/06 04:21:45;;;;;;;;;;;;;;;-142.75;100.00;78048.88;5055658;28;19913;-64
2022/08/06 04:24:11;;;;;;;;;;;;;;;-142.75;100.00;78050.84;5055550;28;19917;-64
2022/08/06 04:26:37;;;;;;;;;;;;;;;-142.75;100.00;78054.81;5055348;28;19996;-64
2022/08/06 04:29:03;;;;;;;;;;;;;;;-142.75;100.00;78054.81;5055467;28;19916;-64
2022/08/06 04:31:29;;;;;;;;;;;;;;;-142.75;100.00;78060.72;5055412;28;19921;-63
2022/08/06 04:33:55;;;;;;;;;;;;;;;-142.75;100.00;78056.78;5055488;28;19943;-64
2022/08/06 04:36:21;;;;;;;;;;;;;;;-142.75;100.00;78052.81;5055424;28;20382;-64
2022/08/06 04:38:46;;;;;;;;;;;;;;;-142.75;100.00;78031.16;5054935;28;19913;-64
2022/08/06 04:41:12;;;;;;;;;;;;;;;-142.75;100.00;78023.28;5055339;28;19920;-64
2022/08/06 04:43:37;;;;;;;;;;;;;;;-142.75;100.00;78009.50;5055260;28;19920;-64
2022/08/06 04:46:03;;;;;;;;;;;;;;;-142.75;100.00;78003.59;5055207;28;20278;-63
2022/08/06 04:48:29;;;;;;;;;;;;;;;-142.75;100.00;77987.84;5054845;28;19917;-64
2022/08/06 04:50:54;;;;;;;;;;;;;;;-142.75;100.00;77989.81;5055075;28;19924;-64
2022/08/06 04:53:19;;;;;;;;;;;;;;;-142.75;100.00;77997.69;5055040;28;19913;-64
2022/08/06 04:55:45;;;;;;;;;;;;;;;-142.75;100.00;77991.78;5055051;28;20366;-63
2022/08/06 04:58:12;;;;;;;;;;;;;;;-142.75;100.00;77997.69;5054635;28;19967;-64
2022/08/06 05:00:38;;;;;;;;;;;;;;;-142.75;100.00;77987.84;5054883;28;20404;-64
2022/08/06 05:03:04;;;;;;;;;;;;;;;-142.75;100.00;77978.00;5054935;28;20007;-64
2022/08/06 05:05:31;;;;;;;;;;;;;;;-142.75;100.00;77976.03;5053475;28;20012;-64
2022/08/06 05:07:57;;;;;;;;;;;;;;;-142.75;100.00;77983.91;5054211;28;19924;-64
2022/08/06 05:10:25;;;;;;;;;;;;;;;-142.75;100.00;77974.06;5054704;28;19962;-64
2022/08/06 05:12:53;;;;;;;;;;;;;;;-142.75;100.00;77952.41;5054719;28;19913;-64
2022/08/06 05:15:26;;;;;;;;;;;;;;;-142.75;100.00;77936.66;5054678;28;19923;-64
2022/08/06 05:17:56;;;;;;;;;;;;;;;-142.75;100.00;77911.06;5054291;28;19913;-64
2022/08/06 05:20:21;;;;;;;;;;;;;;;-142.75;100.00;77893.31;5054550;28;19960;-64
2022/08/06 05:22:48;;;;;;;;;;;;;;;-142.75;100.00;77887.41;5054529;28;20454;-64
2022/08/06 05:25:14;;;;;;;;;;;;;;;-142.75;100.00;77859.84;5054505;28;19913;-64
2022/08/06 05:27:40;;;;;;;;;;;;;;;-142.75;100.00;77857.88;5054084;28;19913;-64
2022/08/06 05:30:05;;;;;;;;;;;;;;;-142.75;100.00;77850.00;5054304;28;19917;-64
2022/08/06 05:32:30;;;;;;;;;;;;;;;-142.75;100.00;77838.19;5054409;28;19935;-63
2022/08/06 05:34:56;;;;;;;;;;;;;;;-142.75;100.00;77816.53;5054262;28;19998;-64
2022/08/06 05:37:21;;;;;;;;;;;;;;;-142.75;100.00;77818.50;5053875;28;20015;-64
2022/08/06 05:39:46;;;;;;;;;;;;;;;-142.75;100.00;77804.72;5054542;28;20267;-64
2022/08/06 05:42:11;;;;;;;;;;;;;;;-142.75;100.00;77787.00;5054210;28;19917;-64
2022/08/06 05:44:36;;;;;;;;;;;;;;;-142.75;100.00;77767.31;5054116;28;19924;-64
2022/08/06 05:47:06;;;;;;;;;;;;;;;-142.75;100.00;77759.44;5053787;28;19919;-63
2022/08/06 05:49:31;;;;;;;;;;;;;;;-142.75;100.00;77751.56;5054031;28;20271;-64
2022/08/06 05:52:01;;;;;;;;;;;;;;;-142.75;100.00;77720.03;5053932;28;19916;-63
2022/08/06 05:54:34;;;;;;;;;;;;;;;-142.75;100.00;77700.34;5054109;28;20302;-64
2022/08/06 05:57:11;;;;;;;;;;;;;;;-142.75;100.00;77670.81;5053538;28;19913;-64
2022/08/06 05:59:39;;;;;;;;;;;;;;;-142.75;100.00;77641.28;5053785;28;19943;-64
2022/08/06 06:02:05;;;;;;;;;;;;;;;-142.75;100.00;77641.28;5053733;28;20383;-64
2022/08/06 06:04:31;;;;;;;;;;;;;;;-142.75;100.00;77605.84;5053787;28;19913;-64
2022/08/06 06:06:56;;;;;;;;;;;;;;;-142.75;100.00;77570.41;5053314;28;19958;-64
2022/08/06 06:09:22;;;;;;;;;;;;;;;-142.75;100.00;77558.59;5053592;28;20003;-64
2022/08/06 06:11:48;;;;;;;;;;;;;;;-142.75;100.00;77536.94;5053559;28;20420;-64
2022/08/06 06:14:43;;;;;;;;;;;;;;;-142.75;100.00;77513.31;5053530;28;20390;-63
2022/08/06 06:17:14;;;;;;;;;;;;;;;-142.75;100.00;77464.09;5039592;28;19917;-63
2022/08/06 06:20:03;;;;;;;;;;;;;;;-142.75;100.00;77440.44;5053465;28;19909;-63
2022/08/06 06:22:34;;;;;;;;;;;;;;;-142.75;100.00;77432.56;5045126;28;19920;-64
2022/08/06 06:25:04;;;;;;;;;;;;;;;-142.75;100.00;77426.66;5053358;28;20301;-64
2022/08/06 06:27:38;;;;;;;;;;;;;;;-142.75;100.00;77405.00;5052886;28;19912;-64
2022/08/06 06:30:07;;;;;;;;;;;;;;;-142.75;100.00;77397.13;5053202;28;19916;-64
2022/08/06 06:32:41;;;;;;;;;;;;;;;-142.75;100.00;77391.22;5053158;28;19913;-64
2022/08/06 06:35:25;;;;;;;;;;;;;;;-142.75;100.00;77385.31;5053219;28;19913;-64
2022/08/06 06:37:56;;;;;;;;;;;;;;;-142.75;100.00;77393.19;5052733;28;19955;-64
2022/08/06 06:40:32;;;;;;;;;;;;;;;-142.75;100.00;77369.56;5053087;28;20374;-64
2022/08/06 06:43:09;;;;;;;;;;;;;;;-142.75;100.00;77330.19;5053031;28;19913;-64
2022/08/06 06:45:56;;;;;;;;;;;;;;;-142.75;100.00;77306.56;5053016;28;19920;-64
2022/08/06 06:48:25;;;;;;;;;;;;;;;-142.75;100.00;77286.88;5052552;28;19912;-64
2022/08/06 06:50:52;;;;;;;;;;;;;;;-142.75;100.00;77275.06;5052862;28;19916;-64
2022/08/06 06:53:18;;;;;;;;;;;;;;;-142.75;100.00;77247.50;5052679;28;19913;-64
2022/08/06 06:55:48;;;;;;;;;;;;;;;-142.75;100.00;77212.06;5052783;28;20362;-64
2022/08/06 06:58:25;;;;;;;;;;;;;;;-142.75;100.00;77253.41;5052274;28;19913;-63
2022/08/06 07:00:52;;;;;;;;;;;;;;;-142.75;100.00;77221.91;5052717;28;19913;-64
2022/08/06 07:03:18;;;;;;;;;;;;;;;-142.75;100.00;77188.44;5052654;28;20317;-64
2022/08/06 07:05:46;;;;;;;;;;;;;;;-142.75;100.00;77172.69;5052634;28;19913;-64
2022/08/06 07:08:13;;;;;;;;;;;;;;;-142.75;100.00;77176.63;5052089;28;19967;-64
2022/08/06 07:10:39;;;;;;;;;;;;;;;-142.75;100.00;77145.13;5052358;28;19924;-64
2022/08/06 07:13:05;;;;;;;;;;;;;;;-142.75;100.00;77147.09;5052394;28;19913;-64
2022/08/06 07:15:31;;;;;;;;;;;;;;;-142.75;100.00;77117.56;5052462;28;19935;-63
2022/08/06 07:17:57;;;;;;;;;;;;;;;-142.75;100.00;77097.88;5052053;28;19913;-64
2022/08/06 07:20:24;;;;;;;;;;;;;;;-142.75;100.00;77095.91;5052442;28;19991;-63
2022/08/06 07:22:51;;;;;;;;;;;;;;;-142.75;100.00;77088.03;5052432;28;20040;-64
2022/08/06 07:25:16;;;;;;;;;;;;;;;-142.75;100.00;77068.34;5052310;28;19966;-64
2022/08/06 07:27:46;;;;;;;;;;;;;;;-142.75;100.00;77058.50;5051049;28;19913;-64
2022/08/06 07:30:12;;;;;;;;;;;;;;;-142.75;100.00;77058.50;5052240;28;19924;-64
2022/08/06 07:32:38;;;;;;;;;;;;;;;-142.75;100.00;77013.22;5052250;28;19966;-64
2022/08/06 07:35:04;;;;;;;;;;;;;;;-142.75;100.00;77007.31;5052177;28;20409;-64
2022/08/06 07:37:30;;;;;;;;;;;;;;;-142.75;99.10;77017.16;5051762;28;19917;-64
2022/08/06 07:39:57;;;;;;;;;;;;;;;-142.75;99.73;76981.72;5052041;28;19920;-64
2022/08/06 07:42:24;;;;;;;;;;;;;;;-142.75;96.95;76967.94;5052113;28;19951;-63
2022/08/06 07:44:51;;;;;;;;;;;;;;;-142.75;96.86;76946.28;5052128;28;19963;-64
2022/08/06 07:47:19;;;;;;;;;;;;;;;-142.75;93.35;76983.69;5050496;28;19912;-64
2022/08/06 07:49:45;;;;;;;;;;;;;;;-142.75;96.34;76960.06;5051083;28;20010;-63
2022/08/06 07:52:13;;;;;;;;;;;;;;;-142.75;96.95;76904.94;5050725;28;19920;-63
2022/08/06 07:54:40;;;;;;;;;;;;;;;-142.75;91.24;76918.72;5050816;28;19916;-63
2022/08/06 07:57:05;;;;;;;;;;;;;;;-142.75;93.04;76869.50;5050598;28;19919;-63
2022/08/06 07:59:31;;;;;;;;;;;;;;;-142.75;85.69;76881.31;5051083;28;20378;-63
2022/08/06 08:01:57;;;;;;;;;;;;;;;-142.75;83.32;76863.59;5050700;28;20275;-63
2022/08/06 08:07:06;;;;;;;;;;;;;;;-142.75;81.78;76849.81;5050324;28;19920;-63
2022/08/06 08:09:32;;;;;;;;;;;;;;;-142.75;78.62;76847.84;5050848;28;19916;-63
2022/08/06 08:11:58;;;;;;;;;;;;;;;-142.75;85.11;76920.69;5050813;28;20068;-62
2022/08/06 08:14:24;;;;;;;;;;;;;;;-142.75;85.93;76983.69;5050877;28;20424;-63
2022/08/06 08:16:50;;;;;;;;;;;;;;;-142.75;83.48;76987.63;5051405;28;20693;-63
2022/08/06 08:19:30;;;;;;;;;;;;;;;-142.75;78.69;76967.94;5051637;28;20461;-63
2022/08/06 08:21:56;;;;;;;;;;;;;;;-142.75;78.37;76922.66;5051817;28;19920;-64
2022/08/06 08:24:22;;;;;;;;;;;;;;;-142.75;77.22;76861.63;5051714;28;19912;-64
2022/08/06 08:26:48;;;;;;;;;;;;;;;-142.75;78.04;76857.69;5051486;28;20290;-64
2022/08/06 08:29:13;;;;;;;;;;;;;;;-142.75;75.78;76834.06;5033751;28;19996;-63
2022/08/06 08:31:38;;;;;;;;;;;;;;;-142.75;75.65;76812.41;5051638;28;19921;-63
2022/08/06 08:34:04;;;;;;;;;;;;;;;-142.75;73.11;76782.91;5051627;28;19917;-63
2022/08/06 08:36:29;;;;;;;;;;;;;;;-142.75;74.04;76775.03;5051482;28;19912;-62
2022/08/06 08:38:57;;;;;;;;;;;;;;;-142.75;68.55;76733.69;5052264;28;20408;-63
2022/08/06 08:41:24;;;;;;;;;;;;;;;-142.75;68.84;76739.59;5055323;28;20366;-62
2022/08/06 08:43:52;;;;;;;;;;;;;;;-142.75;68.27;76715.97;5055291;28;20638;-63
2022/08/06 08:46:18;;;;;;;;;;;;;;;-142.75;69.13;76666.75;5055246;28;19912;-62
2022/08/06 08:48:44;;;;;;;;;;;;;;;-142.75;68.95;76637.22;5054730;28;20378;-63
2022/08/06 08:51:11;;;;;;;;;;;;;;;-142.75;67.35;76609.66;5055000;28;19978;-63
2022/08/06 08:53:39;;;;;;;;;;;;;;;-142.75;67.06;76605.72;5055123;28;19913;-63
2022/08/06 08:56:05;;;;;;;;;;;;;;;-142.75;67.66;76619.50;5050022;28;19919;-63
2022/08/06 08:58:31;;;;;;;;;;;;;;;-142.75;66.70;76686.44;5052825;28;19917;-63
2022/08/06 09:00:57;;;;;;;;;;;;;;;-142.75;69.21;76672.66;5054767;28;19913;-63
2022/08/06 09:03:22;;;;;;;;;;;;;;;-142.75;68.86;76682.50;5036743;28;19923;-64
2022/08/06 09:05:47;;;;;;;;;;;;;;;-142.75;68.26;76651.00;5054598;28;19917;-64
2022/08/06 09:08:14;;;;;;;;;;;;;;;-142.75;66.02;76619.50;5054183;28;19928;-63
2022/08/06 09:10:39;;;;;;;;;;;;;;;-142.75;67.30;76645.09;5055526;22;19925;-65
2022/08/06 09:13:04;;;;;;;;;;;;;;;-142.75;65.77;76635.25;5013424;28;19984;-65
2022/08/06 09:15:30;;;;;;;;;;;;;;;-142.75;65.91;76574.22;5014400;28;19913;-65
2022/08/06 09:17:55;;;;;;;;;;;;;;;-142.75;63.15;76566.34;5014377;28;19920;-65
2022/08/06 09:20:20;;;;;;;;;;;;;;;-142.75;65.14;76483.69;5014614;28;19920;-66
2022/08/06 09:22:50;;;;;;;;;;;;;;;-142.75;65.30;76485.66;5014683;28;19913;-65
2022/08/06 09:25:34;;;;;;;;;;;;;;;-142.75;61.42;76481.72;5014654;28;20342;-65
2022/08/06 09:27:59;;;;;;;;;;;;;;;-142.75;61.87;76505.34;5014276;28;19936;-65
2022/08/06 09:30:26;;;;;;;;;;;;;;;-142.75;61.45;76485.66;5014277;28;20370;-66
2022/08/06 09:32:52;;;;;;;;;;;;;;;-142.75;63.53;76485.66;5014453;28;20333;-66
2022/08/06 09:35:23;;;;;;;;;;;;;;;-142.75;64.05;76495.50;5014617;28;19976;-66
2022/08/06 09:37:49;;;;;;;;;;;;;;;-142.75;61.98;76499.44;5013973;28;20446;-65
2022/08/06 09:40:16;;;;;;;;;;;;;;;-142.75;63.70;76448.25;5014406;28;19965;-66
2022/08/06 09:42:48;;;;;;;;;;;;;;;-142.75;63.79;76464.00;4996774;28;19980;-65
2022/08/06 09:45:14;;;;;;;;;;;;;;;-142.75;63.99;76483.69;4996797;28;19913;-66
2022/08/06 09:47:39;;;;;;;;;;;;;;;-142.75;61.00;76458.09;4996240;28;20347;-66
2022/08/06 09:50:05;;;;;;;;;;;;;;;-142.75;62.52;76424.63;5013322;28;19921;-65
2022/08/06 09:52:31;;;;;;;;;;;;;;;-142.75;58.78;76420.69;5013844;28;19913;-66
2022/08/06 09:54:56;;;;;;;;;;;;;;;-142.75;59.67;76442.34;5014211;28;20012;-66
2022/08/06 09:57:22;;;;;;;;;;;;;;;-142.75;60.11;76444.31;5013886;28;19914;-66
2022/08/06 09:59:47;;;;;;;;;;;;;;;-142.75;57.16;76402.97;5014020;28;20318;-66
2022/08/06 10:02:19;;;;;;;;;;;;;;;-142.75;58.30;76408.88;5014148;28;19909;-65
2022/08/06 10:04:45;;;;;;;;;;;;;;;-142.75;59.84;76379.34;5014042;28;19917;-66
2022/08/06 10:07:10;;;;;;;;;;;;;;;-142.75;59.24;76345.91;5013699;28;20441;-66
2022/08/06 10:09:37;;;;;;;;;;;;;;;-142.75;56.62;76302.59;5013840;28;19913;-66
2022/08/06 10:12:16;;;;;;;;;;;;;;;-142.75;57.26;76330.16;5013763;28;19957;-66
2022/08/06 10:14:41;;;;;;;;;;;;;;;-142.75;57.00;76294.72;5013847;28;19919;-66
2022/08/06 10:17:16;;;;;;;;;;;;;;;-142.75;54.47;76310.47;5013561;28;20286;-66
2022/08/06 10:19:43;;;;;;;;;;;;;;;-142.75;58.29;76332.13;5013761;28;20051;-66
2022/08/06 10:22:16;;;;;;;;;;;;;;;-142.75;54.47;76278.97;5013739;28;19936;-66
2022/08/06 10:24:46;;;;;;;;;;;;;;;-142.75;57.87;76302.59;5013594;28;19920;-67
2022/08/06 10:27:21;;;;;;;;;;;;;;;-142.75;60.41;76385.25;5013560;28;19933;-66
2022/08/06 10:29:49;;;;;;;;;;;;;;;-142.75;58.00;76452.19;5013593;28;19976;-66
2022/08/06 10:32:15;;;;;;;;;;;;;;;-142.75;60.67;76582.09;5013527;28;19922;-66
2022/08/06 10:34:44;;;;;;;;;;;;;;;-142.75;60.31;76523.06;5013578;28;19913;-66
2022/08/06 10:37:10;;;;;;;;;;;;;;;-142.75;59.22;76477.78;5013133;28;19918;-65
2022/08/06 10:39:36;;;;;;;;;;;;;;;-142.75;56.98;76408.88;5013386;28;19921;-64
2022/08/06 10:42:02;;;;;;;;;;;;;;;-142.75;54.97;76365.56;4995817;28;19936;-66
2022/08/06 10:44:28;;;;;;;;;;;;;;;-142.75;51.65;76302.59;5013376;28;19914;-64
2022/08/06 10:46:53;;;;;;;;;;;;;;;-142.75;51.90;76318.34;5013054;28;19960;-66
2022/08/06 10:49:19;;;;;;;;;;;;;;;-142.75;51.72;76243.53;5012946;28;19917;-67
2022/08/06 10:51:46;;;;;;;;;;;;;;;-142.75;51.43;76231.72;5012983;28;19971;-65
2022/08/06 10:54:11;;;;;;;;;;;;;;;-142.75;48.50;76245.50;5013168;28;19921;-66
2022/08/06 10:56:37;;;;;;;;;;;;;;;-142.75;48.81;76208.09;5012848;28;20295;-66
2022/08/06 10:59:05;;;;;;;;;;;;;;;-142.75;43.03;76273.06;5012556;28;20364;-66
2022/08/06 11:01:31;;;;;;;;;;;;;;;-142.75;47.48;76273.06;5012930;28;19991;-66
2022/08/06 11:04:02;;;;;;;;;;;;;;;-142.75;41.72;76290.78;5013093;28;19917;-64
2022/08/06 11:06:59;;;;;;;;;;;;;;;-142.75;42.36;76294.72;5012658;28;19913;-65
2022/08/06 11:09:33;;;;;;;;;;;;;;;-142.75;43.51;76373.44;4979735;28;19933;-66
2022/08/06 11:12:01;;;;;;;;;;;;;;;-142.75;46.86;76298.66;5012704;28;20020;-67
2022/08/06 11:14:27;;;;;;;;;;;;;;;-142.75;51.31;76353.78;5012890;28;20008;-65
2022/08/06 11:16:56;;;;;;;;;;;;;;;-142.75;51.33;76351.81;5012475;28;20009;-66
2022/08/06 11:19:36;;;;;;;;;;;;;;;-142.75;52.78;76471.88;5012822;28;19920;-66
2022/08/06 11:22:01;;;;;;;;;;;;;;;-142.75;54.62;76560.44;5012795;28;19913;-66
2022/08/06 11:24:27;;;;;;;;;;;;;;;-142.75;53.60;76477.78;5012791;28;19917;-66
2022/08/06 11:26:52;;;;;;;;;;;;;;;-142.75;50.86;76410.84;4994860;28;19914;-66
2022/08/06 11:29:17;;;;;;;;;;;;;;;-142.75;48.32;76328.19;5012546;28;20429;-66
2022/08/06 11:31:45;;;;;;;;;;;;;;;-142.75;51.15;76278.97;5012569;28;19948;-66
2022/08/06 11:34:14;;;;;;;;;;;;;;;-142.75;44.76;76267.16;5012724;28;20379;-65
2022/08/06 11:36:50;;;;;;;;;;;;;;;-142.75;44.23;76290.78;5012235;28;19952;-65
2022/08/06 11:39:16;;;;;;;;;;;;;;;-142.75;42.86;76280.94;5012531;28;20013;-66
2022/08/06 11:41:48;;;;;;;;;;;;;;;-142.75;53.56;76379.34;5012342;28;19968;-65
2022/08/06 11:44:17;;;;;;;;;;;;;;;-142.75;54.26;76469.91;5012462;28;20338;-66
2022/08/06 11:46:45;;;;;;;;;;;;;;;-142.75;55.84;76532.88;5012250;28;19957;-65
2022/08/06 11:49:11;;;;;;;;;;;;;;;-142.75;57.48;76586.03;5012428;28;19913;-66
2022/08/06 11:51:42;;;;;;;;;;;;;;;-142.75;58.60;76578.16;5012232;28;20379;-66
2022/08/06 11:54:13;;;;;;;;;;;;;;;-142.75;58.09;76460.06;4994738;28;19914;-66
2022/08/06 11:56:57;;;;;;;;;;;;;;;-142.75;55.25;76324.25;5011961;28;19913;-66
2022/08/06 11:59:25;;;;;;;;;;;;;;;-142.75;46.69;76235.66;5012503;28;19949;-66
2022/08/06 12:01:50;;;;;;;;;;;;;;;-142.75;46.76;76263.22;5012440;28;20282;-66
2022/08/06 12:04:34;;;;;;;;;;;;;;;-142.75;48.79;76237.63;5012319;28;19914;-66
2022/08/06 12:07:14;;;;;;;;;;;;;;;-142.75;41.85;76231.72;5012022;28;20003;-67
2022/08/06 12:09:39;;;;;;;;;;;;;;;-142.75;45.04;76192.38;5012166;28;20375;-66
2022/08/06 12:12:23;;;;;;;;;;;;;;;-142.75;46.82;76332.13;5012119;28;19976;-66
2022/08/06 12:14:48;;;;;;;;;;;;;;;-142.75;52.50;76412.81;5014715;28;19922;-66
2022/08/06 12:17:14;;;;;;;;;;;;;;;-142.75;54.54;76525.03;5015720;28;20094;-66
2022/08/06 12:19:43;;;;;;;;;;;;;;;-142.75;59.04;76595.88;5015899;28;20406;-66
2022/08/06 12:22:09;;;;;;;;;;;;;;;-142.75;57.11;76528.97;5016035;28;19914;-66
2022/08/06 12:24:35;;;;;;;;;;;;;;;-142.75;58.72;76572.25;5015897;28;19918;-66
2022/08/06 12:27:00;;;;;;;;;;;;;;;-142.75;54.85;76582.09;5015640;28;19920;-65